Aviation Digital Data Service (ADDS)

Output produced by METARs form (1714 UTC 24 June 2019)
found at http://www.aviationweather.gov/metar/data/
 
METAR text: WSSS 241700Z 15007KT 9999 FEW020 BKN300 28/25 Q1011 NOSIG
Conditions at: WSSS (SINGAPORE/CHANGI, SG) observed 1700 UTC 24 June 2019
Temperature: 28.0°C (82°F)
Dewpoint: 25.0°C (77°F) [RH = 84%]
Pressure (altimeter): 29.85 inches Hg (1011.0 mb)
Winds: from the SSE (150 degrees) at 8 MPH (7 knots; 3.6 m/s)
Visibility: 6 or more miles (10+ km)
Ceiling: 30000 feet AGL
Clouds: few clouds at 2000 feet AGL
broken clouds at 30000 feet AGL
Weather: no significant weather observed at this time

METAR text: WSSS 241630Z 15007KT 110V180 9999 FEW020 SCT150 BKN300 28/25 Q1011 NOSIG
Conditions at: WSSS (SINGAPORE/CHANGI, SG) observed 1630 UTC 24 June 2019
Temperature: 28.0°C (82°F)
Dewpoint: 25.0°C (77°F) [RH = 84%]
Pressure (altimeter): 29.85 inches Hg (1011.0 mb)
Winds: from the SSE (150 degrees) at 8 MPH (7 knots; 3.6 m/s)
Visibility: 6 or more miles (10+ km)
Ceiling: 30000 feet AGL
Clouds: few clouds at 2000 feet AGL
scattered clouds at 15000 feet AGL
broken clouds at 30000 feet AGL
Weather: no significant weather observed at this time

METAR text: WSSS 241600Z 15007KT 110V170 9999 FEW020 SCT150 BKN300 28/24 Q1011 NOSIG
Conditions at: WSSS (SINGAPORE/CHANGI, SG) observed 1600 UTC 24 June 2019
Temperature: 28.0°C (82°F)
Dewpoint: 24.0°C (75°F) [RH = 79%]
Pressure (altimeter): 29.85 inches Hg (1011.0 mb)
Winds: from the SSE (150 degrees) at 8 MPH (7 knots; 3.6 m/s)
Visibility: 6 or more miles (10+ km)
Ceiling: 30000 feet AGL
Clouds: few clouds at 2000 feet AGL
scattered clouds at 15000 feet AGL
broken clouds at 30000 feet AGL
Weather: no significant weather observed at this time

METAR text: WSSS 241530Z 15009KT 120V190 9999 FEW020 SCT150 BKN300 29/24 Q1011 NOSIG
Conditions at: WSSS (SINGAPORE/CHANGI, SG) observed 1530 UTC 24 June 2019
Temperature: 29.0°C (84°F)
Dewpoint: 24.0°C (75°F) [RH = 74%]
Pressure (altimeter): 29.85 inches Hg (1011.0 mb)
Winds: from the SSE (150 degrees) at 10 MPH (9 knots; 4.6 m/s)
Visibility: 6 or more miles (10+ km)
Ceiling: 30000 feet AGL
Clouds: few clouds at 2000 feet AGL
scattered clouds at 15000 feet AGL
broken clouds at 30000 feet AGL
Weather: no significant weather observed at this time

METAR text: WSSS 241500Z 17006KT 140V200 9999 FEW020 BKN150 28/24 Q1011 NOSIG
Conditions at: WSSS (SINGAPORE/CHANGI, SG) observed 1500 UTC 24 June 2019
Temperature: 28.0°C (82°F)
Dewpoint: 24.0°C (75°F) [RH = 79%]
Pressure (altimeter): 29.85 inches Hg (1011.0 mb)
Winds: from the S (170 degrees) at 7 MPH (6 knots; 3.1 m/s)
Visibility: 6 or more miles (10+ km)
Ceiling: 15000 feet AGL
Clouds: few clouds at 2000 feet AGL
broken clouds at 15000 feet AGL
Weather: no significant weather observed at this time

METAR text: WSSS 241430Z 16007KT 9999 FEW020 BKN150 28/25 Q1011 NOSIG
Conditions at: WSSS (SINGAPORE/CHANGI, SG) observed 1430 UTC 24 June 2019
Temperature: 28.0°C (82°F)
Dewpoint: 25.0°C (77°F) [RH = 84%]
Pressure (altimeter): 29.85 inches Hg (1011.0 mb)
Winds: from the SSE (160 degrees) at 8 MPH (7 knots; 3.6 m/s)
Visibility: 6 or more miles (10+ km)
Ceiling: 15000 feet AGL
Clouds: few clouds at 2000 feet AGL
broken clouds at 15000 feet AGL
Weather: no significant weather observed at this time

METAR text: WSSS 241400Z 17006KT 140V220 9999 FEW020 BKN300 28/25 Q1010 NOSIG
Conditions at: WSSS (SINGAPORE/CHANGI, SG) observed 1400 UTC 24 June 2019
Temperature: 28.0°C (82°F)
Dewpoint: 25.0°C (77°F) [RH = 84%]
Pressure (altimeter): 29.82 inches Hg (1010.0 mb)
Winds: from the S (170 degrees) at 7 MPH (6 knots; 3.1 m/s)
Visibility: 6 or more miles (10+ km)
Ceiling: 30000 feet AGL
Clouds: few clouds at 2000 feet AGL
broken clouds at 30000 feet AGL
Weather: no significant weather observed at this time

METAR text: WSSS 241330Z 16006KT 9999 FEW020 BKN300 28/24 Q1010 NOSIG
Conditions at: WSSS (SINGAPORE/CHANGI, SG) observed 1330 UTC 24 June 2019
Temperature: 28.0°C (82°F)
Dewpoint: 24.0°C (75°F) [RH = 79%]
Pressure (altimeter): 29.82 inches Hg (1010.0 mb)
Winds: from the SSE (160 degrees) at 7 MPH (6 knots; 3.1 m/s)
Visibility: 6 or more miles (10+ km)
Ceiling: 30000 feet AGL
Clouds: few clouds at 2000 feet AGL
broken clouds at 30000 feet AGL
Weather: no significant weather observed at this time

METAR text: WSSS 241300Z 15008KT 9999 FEW020 SCT150 BKN300 28/25 Q1010 NOSIG
Conditions at: WSSS (SINGAPORE/CHANGI, SG) observed 1300 UTC 24 June 2019
Temperature: 28.0°C (82°F)
Dewpoint: 25.0°C (77°F) [RH = 84%]
Pressure (altimeter): 29.82 inches Hg (1010.0 mb)
Winds: from the SSE (150 degrees) at 9 MPH (8 knots; 4.1 m/s)
Visibility: 6 or more miles (10+ km)
Ceiling: 30000 feet AGL
Clouds: few clouds at 2000 feet AGL
scattered clouds at 15000 feet AGL
broken clouds at 30000 feet AGL
Weather: no significant weather observed at this time

METAR text: WSSS 241230Z 15005KT 9999 FEW020 BKN150 28/24 Q1009 NOSIG
Conditions at: WSSS (SINGAPORE/CHANGI, SG) observed 1230 UTC 24 June 2019
Temperature: 28.0°C (82°F)
Dewpoint: 24.0°C (75°F) [RH = 79%]
Pressure (altimeter): 29.79 inches Hg (1009.0 mb)
Winds: from the SSE (150 degrees) at 6 MPH (5 knots; 2.6 m/s)
Visibility: 6 or more miles (10+ km)
Ceiling: 15000 feet AGL
Clouds: few clouds at 2000 feet AGL
broken clouds at 15000 feet AGL
Weather: no significant weather observed at this time

METAR text: WSSS 241200Z 17005KT 130V230 9000 FEW016 BKN150 28/24 Q1009 NOSIG
Conditions at: WSSS (SINGAPORE/CHANGI, SG) observed 1200 UTC 24 June 2019
Temperature: 28.0°C (82°F)
Dewpoint: 24.0°C (75°F) [RH = 79%]
Pressure (altimeter): 29.79 inches Hg (1009.0 mb)
Winds: from the S (170 degrees) at 6 MPH (5 knots; 2.6 m/s)
Visibility: 6 miles ( 9 km)
Ceiling: 15000 feet AGL
Clouds: few clouds at 1600 feet AGL
broken clouds at 15000 feet AGL
Weather: no significant weather observed at this time

METAR text: WSSS 241130Z 17008KT 150V250 8000 -RA FEW016 BKN160 28/23 Q1009 NOSIG
Conditions at: WSSS (SINGAPORE/CHANGI, SG) observed 1130 UTC 24 June 2019
Temperature: 28.0°C (82°F)
Dewpoint: 23.0°C (73°F) [RH = 74%]
Pressure (altimeter): 29.79 inches Hg (1009.0 mb)
Winds: from the S (170 degrees) at 9 MPH (8 knots; 4.1 m/s)
Visibility: 5 miles ( 8 km)
Ceiling: 16000 feet AGL
Clouds: few clouds at 1600 feet AGL
broken clouds at 16000 feet AGL
Weather: -RA  (light rain)

METAR text: WSSS 241100Z 17007KT 8000 -RA FEW016 BKN160 28/24 Q1009 NOSIG
Conditions at: WSSS (SINGAPORE/CHANGI, SG) observed 1100 UTC 24 June 2019
Temperature: 28.0°C (82°F)
Dewpoint: 24.0°C (75°F) [RH = 79%]
Pressure (altimeter): 29.79 inches Hg (1009.0 mb)
Winds: from the S (170 degrees) at 8 MPH (7 knots; 3.6 m/s)
Visibility: 5 miles ( 8 km)
Ceiling: 16000 feet AGL
Clouds: few clouds at 1600 feet AGL
broken clouds at 16000 feet AGL
Weather: -RA  (light rain)

METAR text: WSSS 241030Z 19005KT 170V240 8000 FEW016 SCT180 BKN270 28/24 Q1009 NOSIG
Conditions at: WSSS (SINGAPORE/CHANGI, SG) observed 1030 UTC 24 June 2019
Temperature: 28.0°C (82°F)
Dewpoint: 24.0°C (75°F) [RH = 79%]
Pressure (altimeter): 29.79 inches Hg (1009.0 mb)
Winds: from the S (190 degrees) at 6 MPH (5 knots; 2.6 m/s)
Visibility: 5 miles ( 8 km)
Ceiling: 27000 feet AGL
Clouds: few clouds at 1600 feet AGL
scattered clouds at 18000 feet AGL
broken clouds at 27000 feet AGL
Weather: no significant weather observed at this time

METAR text: WSSS 241000Z 22004KT 190V250 8000 FEW016 FEW017CB FEW018TCU SCT170 28/24 Q1009 RETS NOSIG
Conditions at: WSSS (SINGAPORE/CHANGI, SG) observed 1000 UTC 24 June 2019
Temperature: 28.0°C (82°F)
Dewpoint: 24.0°C (75°F) [RH = 79%]
Pressure (altimeter): 29.79 inches Hg (1009.0 mb)
Winds: from the SW (220 degrees) at 5 MPH (4 knots; 2.1 m/s)
Visibility: 5 miles ( 8 km)
Ceiling: at least 12,000 feet AGL
Clouds: few clouds at 1600 feet AGL
few clouds at 1700 feet AGL
few clouds at 1800 feet AGL
scattered clouds at 17000 feet AGL
Weather: no significant weather observed at this time

METAR text: WSSS 240930Z 22003KT 190V310 7000 -TSRA FEW014 FEW016CB FEW017TCU SCT160 27/24 Q1009 BECMG TL0940 NSW
Conditions at: WSSS (SINGAPORE/CHANGI, SG) observed 0930 UTC 24 June 2019
Temperature: 27.0°C (81°F)
Dewpoint: 24.0°C (75°F) [RH = 84%]
Pressure (altimeter): 29.79 inches Hg (1009.0 mb)
Winds: from the SW (220 degrees) at 3 MPH (3 knots; 1.5 m/s)
Visibility: 4 miles ( 7 km)
Ceiling: at least 12,000 feet AGL
Clouds: few clouds at 1400 feet AGL
few clouds at 1600 feet AGL
few clouds at 1700 feet AGL
scattered clouds at 16000 feet AGL
Weather: -TSRA  (light rain associated with thunderstorm(s))

METAR text: WSSS 240900Z VRB04KT 7000 -SHRA FEW014 FEW016CB FEW017TCU SCT150 27/23 Q1009 NOSIG
Conditions at: WSSS (SINGAPORE/CHANGI, SG) observed 0900 UTC 24 June 2019
Temperature: 27.0°C (81°F)
Dewpoint: 23.0°C (73°F) [RH = 79%]
Pressure (altimeter): 29.79 inches Hg (1009.0 mb)
Winds: variable direction winds at 5 MPH (4 knots; 2.1 m/s)
Visibility: 4 miles ( 7 km)
Ceiling: at least 12,000 feet AGL
Clouds: few clouds at 1400 feet AGL
few clouds at 1600 feet AGL
few clouds at 1700 feet AGL
scattered clouds at 15000 feet AGL
Weather: -SHRA  (light rain showers)

METAR text: WSSS 240830Z 24006KT 190V290 8000 3000S -SHRA SCT012 FEW016CB SCT017TCU 28/23 Q1009 TEMPO TL0845 4000 SHRA
Conditions at: WSSS (SINGAPORE/CHANGI, SG) observed 0830 UTC 24 June 2019
Temperature: 28.0°C (82°F)
Dewpoint: 23.0°C (73°F) [RH = 74%]
Pressure (altimeter): 29.79 inches Hg (1009.0 mb)
Winds: from the WSW (240 degrees) at 7 MPH (6 knots; 3.1 m/s)
Visibility: 5 miles ( 8 km)
Ceiling: at least 12,000 feet AGL
Clouds: scattered clouds at 1200 feet AGL
few clouds at 1600 feet AGL
scattered clouds at 1700 feet AGL
Weather: -SHRA  (light rain showers)

METAR text: WSSS 240800Z 20005KT 170V240 9999 FEW018TCU BKN280 31/24 Q1008 TEMPO TL0830 4000 SHRA
Conditions at: WSSS (SINGAPORE/CHANGI, SG) observed 0800 UTC 24 June 2019
Temperature: 31.0°C (88°F)
Dewpoint: 24.0°C (75°F) [RH = 66%]
Pressure (altimeter): 29.76 inches Hg (1008.0 mb)
Winds: from the SSW (200 degrees) at 6 MPH (5 knots; 2.6 m/s)
Visibility: 6 or more miles (10+ km)
Ceiling: 28000 feet AGL
Clouds: few clouds at 1800 feet AGL
broken clouds at 28000 feet AGL
Weather: no significant weather observed at this time

METAR text: WSSS 240730Z 19007KT 170V250 9999 FEW018TCU BKN280 32/24 Q1008 NOSIG
Conditions at: WSSS (SINGAPORE/CHANGI, SG) observed 0730 UTC 24 June 2019
Temperature: 32.0°C (90°F)
Dewpoint: 24.0°C (75°F) [RH = 63%]
Pressure (altimeter): 29.76 inches Hg (1008.0 mb)
Winds: from the S (190 degrees) at 8 MPH (7 knots; 3.6 m/s)
Visibility: 6 or more miles (10+ km)
Ceiling: 28000 feet AGL
Clouds: few clouds at 1800 feet AGL
broken clouds at 28000 feet AGL
Weather: no significant weather observed at this time

METAR text: WSSS 240700Z 18009KT 9999 FEW018TCU BKN280 31/24 Q1009 NOSIG
Conditions at: WSSS (SINGAPORE/CHANGI, SG) observed 0700 UTC 24 June 2019
Temperature: 31.0°C (88°F)
Dewpoint: 24.0°C (75°F) [RH = 66%]
Pressure (altimeter): 29.79 inches Hg (1009.0 mb)
Winds: from the S (180 degrees) at 10 MPH (9 knots; 4.6 m/s)
Visibility: 6 or more miles (10+ km)
Ceiling: 28000 feet AGL
Clouds: few clouds at 1800 feet AGL
broken clouds at 28000 feet AGL
Weather: no significant weather observed at this time

METAR text: WSSS 240630Z 19009KT 150V230 9999 FEW018TCU SCT280 31/24 Q1009 NOSIG
Conditions at: WSSS (SINGAPORE/CHANGI, SG) observed 0630 UTC 24 June 2019
Temperature: 31.0°C (88°F)
Dewpoint: 24.0°C (75°F) [RH = 66%]
Pressure (altimeter): 29.79 inches Hg (1009.0 mb)
Winds: from the S (190 degrees) at 10 MPH (9 knots; 4.6 m/s)
Visibility: 6 or more miles (10+ km)
Ceiling: at least 12,000 feet AGL
Clouds: few clouds at 1800 feet AGL
scattered clouds at 28000 feet AGL
Weather: no significant weather observed at this time

METAR text: WSSS 240600Z 18011KT 150V210 9999 FEW018TCU SCT280 31/21 Q1009 NOSIG
Conditions at: WSSS (SINGAPORE/CHANGI, SG) observed 0600 UTC 24 June 2019
Temperature: 31.0°C (88°F)
Dewpoint: 21.0°C (70°F) [RH = 55%]
Pressure (altimeter): 29.79 inches Hg (1009.0 mb)
Winds: from the S (180 degrees) at 13 MPH (11 knots; 5.7 m/s)
Visibility: 6 or more miles (10+ km)
Ceiling: at least 12,000 feet AGL
Clouds: few clouds at 1800 feet AGL
scattered clouds at 28000 feet AGL
Weather: no significant weather observed at this time

METAR text: WSSS 240530Z 17010KT 140V200 9999 FEW018 FEW020TCU BKN280 32/25 Q1010 NOSIG
Conditions at: WSSS (SINGAPORE/CHANGI, SG) observed 0530 UTC 24 June 2019
Temperature: 32.0°C (90°F)
Dewpoint: 25.0°C (77°F) [RH = 67%]
Pressure (altimeter): 29.82 inches Hg (1010.0 mb)
Winds: from the S (170 degrees) at 12 MPH (10 knots; 5.1 m/s)
Visibility: 6 or more miles (10+ km)
Ceiling: 28000 feet AGL
Clouds: few clouds at 1800 feet AGL
few clouds at 2000 feet AGL
broken clouds at 28000 feet AGL
Weather: no significant weather observed at this time

METAR text: WSSS 240500Z 17010KT 110V210 9999 FEW018 FEW020TCU BKN270 31/24 Q1010 NOSIG
Conditions at: WSSS (SINGAPORE/CHANGI, SG) observed 0500 UTC 24 June 2019
Temperature: 31.0°C (88°F)
Dewpoint: 24.0°C (75°F) [RH = 66%]
Pressure (altimeter): 29.82 inches Hg (1010.0 mb)
Winds: from the S (170 degrees) at 12 MPH (10 knots; 5.1 m/s)
Visibility: 6 or more miles (10+ km)
Ceiling: 27000 feet AGL
Clouds: few clouds at 1800 feet AGL
few clouds at 2000 feet AGL
broken clouds at 27000 feet AGL
Weather: no significant weather observed at this time

METAR text: WSSS 240430Z 18010KT 140V210 9999 FEW018 FEW020CB BKN270 31/25 Q1010 NOSIG
Conditions at: WSSS (SINGAPORE/CHANGI, SG) observed 0430 UTC 24 June 2019
Temperature: 31.0°C (88°F)
Dewpoint: 25.0°C (77°F) [RH = 71%]
Pressure (altimeter): 29.82 inches Hg (1010.0 mb)
Winds: from the S (180 degrees) at 12 MPH (10 knots; 5.1 m/s)
Visibility: 6 or more miles (10+ km)
Ceiling: 27000 feet AGL
Clouds: few clouds at 1800 feet AGL
few clouds at 2000 feet AGL
broken clouds at 27000 feet AGL
Weather: no significant weather observed at this time

METAR text: WSSS 240400Z 17010KT 9999 VCSH FEW018TCU FEW020CB BKN270 30/25 Q1010 NOSIG
Conditions at: WSSS (SINGAPORE/CHANGI, SG) observed 0400 UTC 24 June 2019
Temperature: 30.0°C (86°F)
Dewpoint: 25.0°C (77°F) [RH = 75%]
Pressure (altimeter): 29.82 inches Hg (1010.0 mb)
Winds: from the S (170 degrees) at 12 MPH (10 knots; 5.1 m/s)
Visibility: 6 or more miles (10+ km)
Ceiling: 27000 feet AGL
Clouds: few clouds at 1800 feet AGL
few clouds at 2000 feet AGL
broken clouds at 27000 feet AGL
Weather: VCSH  (showers in vicinity)

METAR text: WSSS 240330Z 16010KT 130V220 9999 SCT018 FEW018TCU SCT280 30/25 Q1011 NOSIG
Conditions at: WSSS (SINGAPORE/CHANGI, SG) observed 0330 UTC 24 June 2019
Temperature: 30.0°C (86°F)
Dewpoint: 25.0°C (77°F) [RH = 75%]
Pressure (altimeter): 29.85 inches Hg (1011.0 mb)
Winds: from the SSE (160 degrees) at 12 MPH (10 knots; 5.1 m/s)
Visibility: 6 or more miles (10+ km)
Ceiling: at least 12,000 feet AGL
Clouds: scattered clouds at 1800 feet AGL
few clouds at 1800 feet AGL
scattered clouds at 28000 feet AGL
Weather: no significant weather observed at this time

METAR text: WSSS 240300Z 17011KT 140V220 9999 SCT018 FEW020TCU BKN300 31/24 Q1011 NOSIG
Conditions at: WSSS (SINGAPORE/CHANGI, SG) observed 0300 UTC 24 June 2019
Temperature: 31.0°C (88°F)
Dewpoint: 24.0°C (75°F) [RH = 66%]
Pressure (altimeter): 29.85 inches Hg (1011.0 mb)
Winds: from the S (170 degrees) at 13 MPH (11 knots; 5.7 m/s)
Visibility: 6 or more miles (10+ km)
Ceiling: 30000 feet AGL
Clouds: scattered clouds at 1800 feet AGL
few clouds at 2000 feet AGL
broken clouds at 30000 feet AGL
Weather: no significant weather observed at this time

METAR text: WSSS 240230Z 16009KT 150V210 9999 SCT018 BKN300 30/24 Q1011 NOSIG
Conditions at: WSSS (SINGAPORE/CHANGI, SG) observed 0230 UTC 24 June 2019
Temperature: 30.0°C (86°F)
Dewpoint: 24.0°C (75°F) [RH = 70%]
Pressure (altimeter): 29.85 inches Hg (1011.0 mb)
Winds: from the SSE (160 degrees) at 10 MPH (9 knots; 4.6 m/s)
Visibility: 6 or more miles (10+ km)
Ceiling: 30000 feet AGL
Clouds: scattered clouds at 1800 feet AGL
broken clouds at 30000 feet AGL
Weather: no significant weather observed at this time

METAR text: WSSS 240200Z 17007KT 9999 SCT018 BKN300 30/26 Q1011 NOSIG
Conditions at: WSSS (SINGAPORE/CHANGI, SG) observed 0200 UTC 24 June 2019
Temperature: 30.0°C (86°F)
Dewpoint: 26.0°C (79°F) [RH = 79%]
Pressure (altimeter): 29.85 inches Hg (1011.0 mb)
Winds: from the S (170 degrees) at 8 MPH (7 knots; 3.6 m/s)
Visibility: 6 or more miles (10+ km)
Ceiling: 30000 feet AGL
Clouds: scattered clouds at 1800 feet AGL
broken clouds at 30000 feet AGL
Weather: no significant weather observed at this time

METAR text: WSSS 240130Z 17007KT 9999 FEW018 BKN300 30/25 Q1011 NOSIG
Conditions at: WSSS (SINGAPORE/CHANGI, SG) observed 0130 UTC 24 June 2019
Temperature: 30.0°C (86°F)
Dewpoint: 25.0°C (77°F) [RH = 75%]
Pressure (altimeter): 29.85 inches Hg (1011.0 mb)
Winds: from the S (170 degrees) at 8 MPH (7 knots; 3.6 m/s)
Visibility: 6 or more miles (10+ km)
Ceiling: 30000 feet AGL
Clouds: few clouds at 1800 feet AGL
broken clouds at 30000 feet AGL
Weather: no significant weather observed at this time

METAR text: WSSS 240100Z 17007KT 130V210 9999 FEW018 BKN300 30/24 Q1010 NOSIG
Conditions at: WSSS (SINGAPORE/CHANGI, SG) observed 0100 UTC 24 June 2019
Temperature: 30.0°C (86°F)
Dewpoint: 24.0°C (75°F) [RH = 70%]
Pressure (altimeter): 29.82 inches Hg (1010.0 mb)
Winds: from the S (170 degrees) at 8 MPH (7 knots; 3.6 m/s)
Visibility: 6 or more miles (10+ km)
Ceiling: 30000 feet AGL
Clouds: few clouds at 1800 feet AGL
broken clouds at 30000 feet AGL
Weather: no significant weather observed at this time

METAR text: WSSS 240030Z 17007KT 140V210 9999 FEW018 BKN300 29/25 Q1010 NOSIG
Conditions at: WSSS (SINGAPORE/CHANGI, SG) observed 0030 UTC 24 June 2019
Temperature: 29.0°C (84°F)
Dewpoint: 25.0°C (77°F) [RH = 79%]
Pressure (altimeter): 29.82 inches Hg (1010.0 mb)
Winds: from the S (170 degrees) at 8 MPH (7 knots; 3.6 m/s)
Visibility: 6 or more miles (10+ km)
Ceiling: 30000 feet AGL
Clouds: few clouds at 1800 feet AGL
broken clouds at 30000 feet AGL
Weather: no significant weather observed at this time

METAR text: WSSS 240000Z 16006KT 060V190 9999 FEW016 FEW020TCU BKN300 29/26 Q1010 NOSIG
Conditions at: WSSS (SINGAPORE/CHANGI, SG) observed 0000 UTC 24 June 2019
Temperature: 29.0°C (84°F)
Dewpoint: 26.0°C (79°F) [RH = 84%]
Pressure (altimeter): 29.82 inches Hg (1010.0 mb)
Winds: from the SSE (160 degrees) at 7 MPH (6 knots; 3.1 m/s)
Visibility: 6 or more miles (10+ km)
Ceiling: 30000 feet AGL
Clouds: few clouds at 1600 feet AGL
few clouds at 2000 feet AGL
broken clouds at 30000 feet AGL
Weather: no significant weather observed at this time

METAR text: WSSS 232330Z 17005KT 160V220 9999 FEW016 BKN300 29/25 Q1010 NOSIG
Conditions at: WSSS (SINGAPORE/CHANGI, SG) observed 2330 UTC 23 June 2019
Temperature: 29.0°C (84°F)
Dewpoint: 25.0°C (77°F) [RH = 79%]
Pressure (altimeter): 29.82 inches Hg (1010.0 mb)
Winds: from the S (170 degrees) at 6 MPH (5 knots; 2.6 m/s)
Visibility: 6 or more miles (10+ km)
Ceiling: 30000 feet AGL
Clouds: few clouds at 1600 feet AGL
broken clouds at 30000 feet AGL
Weather: no significant weather observed at this time

METAR text: WSSS 232300Z VRB02KT 9999 FEW015 BKN300 28/25 Q1009 NOSIG
Conditions at: WSSS (SINGAPORE/CHANGI, SG) observed 2300 UTC 23 June 2019
Temperature: 28.0°C (82°F)
Dewpoint: 25.0°C (77°F) [RH = 84%]
Pressure (altimeter): 29.79 inches Hg (1009.0 mb)
Winds: variable direction winds at 2 MPH (2 knots; 1.0 m/s)
Visibility: 6 or more miles (10+ km)
Ceiling: 30000 feet AGL
Clouds: few clouds at 1500 feet AGL
broken clouds at 30000 feet AGL
Weather: no significant weather observed at this time

METAR text: WSSS 232230Z VRB02KT 9999 FEW018 SCT170 28/25 Q1009 NOSIG
Conditions at: WSSS (SINGAPORE/CHANGI, SG) observed 2230 UTC 23 June 2019
Temperature: 28.0°C (82°F)
Dewpoint: 25.0°C (77°F) [RH = 84%]
Pressure (altimeter): 29.79 inches Hg (1009.0 mb)
Winds: variable direction winds at 2 MPH (2 knots; 1.0 m/s)
Visibility: 6 or more miles (10+ km)
Ceiling: at least 12,000 feet AGL
Clouds: few clouds at 1800 feet AGL
scattered clouds at 17000 feet AGL
Weather: no significant weather observed at this time

METAR text: WSSS 232200Z VRB02KT 9999 FEW018 SCT170 28/25 Q1009 NOSIG
Conditions at: WSSS (SINGAPORE/CHANGI, SG) observed 2200 UTC 23 June 2019
Temperature: 28.0°C (82°F)
Dewpoint: 25.0°C (77°F) [RH = 84%]
Pressure (altimeter): 29.79 inches Hg (1009.0 mb)
Winds: variable direction winds at 2 MPH (2 knots; 1.0 m/s)
Visibility: 6 or more miles (10+ km)
Ceiling: at least 12,000 feet AGL
Clouds: few clouds at 1800 feet AGL
scattered clouds at 17000 feet AGL
Weather: no significant weather observed at this time

METAR text: WSSS 232130Z VRB01KT 9999 FEW018 BKN170 28/25 Q1009 NOSIG
Conditions at: WSSS (SINGAPORE/CHANGI, SG) observed 2130 UTC 23 June 2019
Temperature: 28.0°C (82°F)
Dewpoint: 25.0°C (77°F) [RH = 84%]
Pressure (altimeter): 29.79 inches Hg (1009.0 mb)
Winds: variable direction winds at 1 MPH (1 knots; 0.5 m/s)
Visibility: 6 or more miles (10+ km)
Ceiling: 17000 feet AGL
Clouds: few clouds at 1800 feet AGL
broken clouds at 17000 feet AGL
Weather: no significant weather observed at this time

METAR text: WSSS 232100Z VRB02KT 9999 FEW018 BKN170 28/24 Q1009 NOSIG
Conditions at: WSSS (SINGAPORE/CHANGI, SG) observed 2100 UTC 23 June 2019
Temperature: 28.0°C (82°F)
Dewpoint: 24.0°C (75°F) [RH = 79%]
Pressure (altimeter): 29.79 inches Hg (1009.0 mb)
Winds: variable direction winds at 2 MPH (2 knots; 1.0 m/s)
Visibility: 6 or more miles (10+ km)
Ceiling: 17000 feet AGL
Clouds: few clouds at 1800 feet AGL
broken clouds at 17000 feet AGL
Weather: no significant weather observed at this time

METAR text: WSSS 232030Z VRB02KT 9999 FEW018 SCT160 28/24 Q1009 NOSIG
Conditions at: WSSS (SINGAPORE/CHANGI, SG) observed 2030 UTC 23 June 2019
Temperature: 28.0°C (82°F)
Dewpoint: 24.0°C (75°F) [RH = 79%]
Pressure (altimeter): 29.79 inches Hg (1009.0 mb)
Winds: variable direction winds at 2 MPH (2 knots; 1.0 m/s)
Visibility: 6 or more miles (10+ km)
Ceiling: at least 12,000 feet AGL
Clouds: few clouds at 1800 feet AGL
scattered clouds at 16000 feet AGL
Weather: no significant weather observed at this time

METAR text: WSSS 232000Z VRB01KT CAVOK 28/25 Q1009 NOSIG
Conditions at: WSSS (SINGAPORE/CHANGI, SG) observed 2000 UTC 23 June 2019
Temperature: 28.0°C (82°F)
Dewpoint: 25.0°C (77°F) [RH = 84%]
Pressure (altimeter): 29.79 inches Hg (1009.0 mb)
Winds: variable direction winds at 1 MPH (1 knots; 0.5 m/s)
Visibility: 6 or more miles (10+ km)
Ceiling: ceiling and visibility are OK
Clouds: unknown
Weather: no significant weather observed at this time

METAR text: WSSS 231930Z 20003KT 150V260 CAVOK 28/24 Q1009 NOSIG
Conditions at: WSSS (SINGAPORE/CHANGI, SG) observed 1930 UTC 23 June 2019
Temperature: 28.0°C (82°F)
Dewpoint: 24.0°C (75°F) [RH = 79%]
Pressure (altimeter): 29.79 inches Hg (1009.0 mb)
Winds: from the SSW (200 degrees) at 3 MPH (3 knots; 1.5 m/s)
Visibility: 6 or more miles (10+ km)
Ceiling: ceiling and visibility are OK
Clouds: unknown
Weather: no significant weather observed at this time

METAR text: WSSS 231900Z 20003KT 170V260 9999 FEW020 BKN160 28/24 Q1009 NOSIG
Conditions at: WSSS (SINGAPORE/CHANGI, SG) observed 1900 UTC 23 June 2019
Temperature: 28.0°C (82°F)
Dewpoint: 24.0°C (75°F) [RH = 79%]
Pressure (altimeter): 29.79 inches Hg (1009.0 mb)
Winds: from the SSW (200 degrees) at 3 MPH (3 knots; 1.5 m/s)
Visibility: 6 or more miles (10+ km)
Ceiling: 16000 feet AGL
Clouds: few clouds at 2000 feet AGL
broken clouds at 16000 feet AGL
Weather: no significant weather observed at this time

METAR text: WSSS 231830Z 20004KT 170V260 9999 FEW020 BKN160 29/24 Q1009 NOSIG
Conditions at: WSSS (SINGAPORE/CHANGI, SG) observed 1830 UTC 23 June 2019
Temperature: 29.0°C (84°F)
Dewpoint: 24.0°C (75°F) [RH = 74%]
Pressure (altimeter): 29.79 inches Hg (1009.0 mb)
Winds: from the SSW (200 degrees) at 5 MPH (4 knots; 2.1 m/s)
Visibility: 6 or more miles (10+ km)
Ceiling: 16000 feet AGL
Clouds: few clouds at 2000 feet AGL
broken clouds at 16000 feet AGL
Weather: no significant weather observed at this time

METAR text: WSSS 231800Z 17005KT 9999 FEW020 BKN160 29/24 Q1009 NOSIG
Conditions at: WSSS (SINGAPORE/CHANGI, SG) observed 1800 UTC 23 June 2019
Temperature: 29.0°C (84°F)
Dewpoint: 24.0°C (75°F) [RH = 74%]
Pressure (altimeter): 29.79 inches Hg (1009.0 mb)
Winds: from the S (170 degrees) at 6 MPH (5 knots; 2.6 m/s)
Visibility: 6 or more miles (10+ km)
Ceiling: 16000 feet AGL
Clouds: few clouds at 2000 feet AGL
broken clouds at 16000 feet AGL
Weather: no significant weather observed at this time

METAR text: WSSS 231730Z 16006KT 9999 FEW020 BKN160 29/24 Q1009 NOSIG
Conditions at: WSSS (SINGAPORE/CHANGI, SG) observed 1730 UTC 23 June 2019
Temperature: 29.0°C (84°F)
Dewpoint: 24.0°C (75°F) [RH = 74%]
Pressure (altimeter): 29.79 inches Hg (1009.0 mb)
Winds: from the SSE (160 degrees) at 7 MPH (6 knots; 3.1 m/s)
Visibility: 6 or more miles (10+ km)
Ceiling: 16000 feet AGL
Clouds: few clouds at 2000 feet AGL
broken clouds at 16000 feet AGL
Weather: no significant weather observed at this time

METAR text: WSSS 231700Z 15006KT 9999 FEW020 BKN160 29/24 Q1009 NOSIG
Conditions at: WSSS (SINGAPORE/CHANGI, SG) observed 1700 UTC 23 June 2019
Temperature: 29.0°C (84°F)
Dewpoint: 24.0°C (75°F) [RH = 74%]
Pressure (altimeter): 29.79 inches Hg (1009.0 mb)
Winds: from the SSE (150 degrees) at 7 MPH (6 knots; 3.1 m/s)
Visibility: 6 or more miles (10+ km)
Ceiling: 16000 feet AGL
Clouds: few clouds at 2000 feet AGL
broken clouds at 16000 feet AGL
Weather: no significant weather observed at this time

METAR text: WSSS 231630Z 15006KT 110V170 9999 FEW020 BKN160 29/24 Q1009 NOSIG
Conditions at: WSSS (SINGAPORE/CHANGI, SG) observed 1630 UTC 23 June 2019
Temperature: 29.0°C (84°F)
Dewpoint: 24.0°C (75°F) [RH = 74%]
Pressure (altimeter): 29.79 inches Hg (1009.0 mb)
Winds: from the SSE (150 degrees) at 7 MPH (6 knots; 3.1 m/s)
Visibility: 6 or more miles (10+ km)
Ceiling: 16000 feet AGL
Clouds: few clouds at 2000 feet AGL
broken clouds at 16000 feet AGL
Weather: no significant weather observed at this time

METAR text: WSSS 231600Z 15007KT 100V170 9999 FEW020 BKN160 29/25 Q1009 NOSIG
Conditions at: WSSS (SINGAPORE/CHANGI, SG) observed 1600 UTC 23 June 2019
Temperature: 29.0°C (84°F)
Dewpoint: 25.0°C (77°F) [RH = 79%]
Pressure (altimeter): 29.79 inches Hg (1009.0 mb)
Winds: from the SSE (150 degrees) at 8 MPH (7 knots; 3.6 m/s)
Visibility: 6 or more miles (10+ km)
Ceiling: 16000 feet AGL
Clouds: few clouds at 2000 feet AGL
broken clouds at 16000 feet AGL
Weather: no significant weather observed at this time

METAR text: WSSS 231530Z 15005KT 360V160 9999 FEW020 BKN160 29/24 Q1009 NOSIG
Conditions at: WSSS (SINGAPORE/CHANGI, SG) observed 1530 UTC 23 June 2019
Temperature: 29.0°C (84°F)
Dewpoint: 24.0°C (75°F) [RH = 74%]
Pressure (altimeter): 29.79 inches Hg (1009.0 mb)
Winds: from the SSE (150 degrees) at 6 MPH (5 knots; 2.6 m/s)
Visibility: 6 or more miles (10+ km)
Ceiling: 16000 feet AGL
Clouds: few clouds at 2000 feet AGL
broken clouds at 16000 feet AGL
Weather: no significant weather observed at this time

METAR text: WSSS 231500Z 16006KT 9999 FEW020 SCT160 BKN300 29/24 Q1009 NOSIG
Conditions at: WSSS (SINGAPORE/CHANGI, SG) observed 1500 UTC 23 June 2019
Temperature: 29.0°C (84°F)
Dewpoint: 24.0°C (75°F) [RH = 74%]
Pressure (altimeter): 29.79 inches Hg (1009.0 mb)
Winds: from the SSE (160 degrees) at 7 MPH (6 knots; 3.1 m/s)
Visibility: 6 or more miles (10+ km)
Ceiling: 30000 feet AGL
Clouds: few clouds at 2000 feet AGL
scattered clouds at 16000 feet AGL
broken clouds at 30000 feet AGL
Weather: no significant weather observed at this time

METAR text: WSSS 231430Z 16007KT 9999 FEW020 BKN300 29/23 Q1009 NOSIG
Conditions at: WSSS (SINGAPORE/CHANGI, SG) observed 1430 UTC 23 June 2019
Temperature: 29.0°C (84°F)
Dewpoint: 23.0°C (73°F) [RH = 70%]
Pressure (altimeter): 29.79 inches Hg (1009.0 mb)
Winds: from the SSE (160 degrees) at 8 MPH (7 knots; 3.6 m/s)
Visibility: 6 or more miles (10+ km)
Ceiling: 30000 feet AGL
Clouds: few clouds at 2000 feet AGL
broken clouds at 30000 feet AGL
Weather: no significant weather observed at this time

METAR text: WSSS 231400Z 17006KT 9999 FEW020 BKN160 29/23 Q1009 NOSIG
Conditions at: WSSS (SINGAPORE/CHANGI, SG) observed 1400 UTC 23 June 2019
Temperature: 29.0°C (84°F)
Dewpoint: 23.0°C (73°F) [RH = 70%]
Pressure (altimeter): 29.79 inches Hg (1009.0 mb)
Winds: from the S (170 degrees) at 7 MPH (6 knots; 3.1 m/s)
Visibility: 6 or more miles (10+ km)
Ceiling: 16000 feet AGL
Clouds: few clouds at 2000 feet AGL
broken clouds at 16000 feet AGL
Weather: no significant weather observed at this time

METAR text: WSSS 231330Z VRB08KT 9999 FEW020 BKN160 29/24 Q1008 NOSIG
Conditions at: WSSS (SINGAPORE/CHANGI, SG) observed 1330 UTC 23 June 2019
Temperature: 29.0°C (84°F)
Dewpoint: 24.0°C (75°F) [RH = 74%]
Pressure (altimeter): 29.76 inches Hg (1008.0 mb)
Winds: variable direction winds at 9 MPH (8 knots; 4.1 m/s)
Visibility: 6 or more miles (10+ km)
Ceiling: 16000 feet AGL
Clouds: few clouds at 2000 feet AGL
broken clouds at 16000 feet AGL
Weather: no significant weather observed at this time

METAR text: WSSS 231300Z 17007KT 9999 FEW020 SCT160 BKN300 29/24 Q1008 NOSIG
Conditions at: WSSS (SINGAPORE/CHANGI, SG) observed 1300 UTC 23 June 2019
Temperature: 29.0°C (84°F)
Dewpoint: 24.0°C (75°F) [RH = 74%]
Pressure (altimeter): 29.76 inches Hg (1008.0 mb)
Winds: from the S (170 degrees) at 8 MPH (7 knots; 3.6 m/s)
Visibility: 6 or more miles (10+ km)
Ceiling: 30000 feet AGL
Clouds: few clouds at 2000 feet AGL
scattered clouds at 16000 feet AGL
broken clouds at 30000 feet AGL
Weather: no significant weather observed at this time

METAR text: WSSS 231230Z 21004KT 180V250 9999 FEW020 SCT170 BKN300 29/24 Q1008 NOSIG
Conditions at: WSSS (SINGAPORE/CHANGI, SG) observed 1230 UTC 23 June 2019
Temperature: 29.0°C (84°F)
Dewpoint: 24.0°C (75°F) [RH = 74%]
Pressure (altimeter): 29.76 inches Hg (1008.0 mb)
Winds: from the SSW (210 degrees) at 5 MPH (4 knots; 2.1 m/s)
Visibility: 6 or more miles (10+ km)
Ceiling: 30000 feet AGL
Clouds: few clouds at 2000 feet AGL
scattered clouds at 17000 feet AGL
broken clouds at 30000 feet AGL
Weather: no significant weather observed at this time

METAR text: WSSS 231200Z VRB02KT 9999 FEW020 BKN170 29/24 Q1008 NOSIG
Conditions at: WSSS (SINGAPORE/CHANGI, SG) observed 1200 UTC 23 June 2019
Temperature: 29.0°C (84°F)
Dewpoint: 24.0°C (75°F) [RH = 74%]
Pressure (altimeter): 29.76 inches Hg (1008.0 mb)
Winds: variable direction winds at 2 MPH (2 knots; 1.0 m/s)
Visibility: 6 or more miles (10+ km)
Ceiling: 17000 feet AGL
Clouds: few clouds at 2000 feet AGL
broken clouds at 17000 feet AGL
Weather: no significant weather observed at this time

METAR text: WSSS 231130Z 22003KT 170V270 9999 FEW020 BKN170 29/25 Q1008 NOSIG
Conditions at: WSSS (SINGAPORE/CHANGI, SG) observed 1130 UTC 23 June 2019
Temperature: 29.0°C (84°F)
Dewpoint: 25.0°C (77°F) [RH = 79%]
Pressure (altimeter): 29.76 inches Hg (1008.0 mb)
Winds: from the SW (220 degrees) at 3 MPH (3 knots; 1.5 m/s)
Visibility: 6 or more miles (10+ km)
Ceiling: 17000 feet AGL
Clouds: few clouds at 2000 feet AGL
broken clouds at 17000 feet AGL
Weather: no significant weather observed at this time

METAR text: WSSS 231100Z 22003KT 170V260 9999 FEW020 BKN180 29/23 Q1008 NOSIG
Conditions at: WSSS (SINGAPORE/CHANGI, SG) observed 1100 UTC 23 June 2019
Temperature: 29.0°C (84°F)
Dewpoint: 23.0°C (73°F) [RH = 70%]
Pressure (altimeter): 29.76 inches Hg (1008.0 mb)
Winds: from the SW (220 degrees) at 3 MPH (3 knots; 1.5 m/s)
Visibility: 6 or more miles (10+ km)
Ceiling: 18000 feet AGL
Clouds: few clouds at 2000 feet AGL
broken clouds at 18000 feet AGL
Weather: no significant weather observed at this time

METAR text: WSSS 231030Z 21004KT 170V250 9999 FEW022 BKN180 30/24 Q1007 NOSIG
Conditions at: WSSS (SINGAPORE/CHANGI, SG) observed 1030 UTC 23 June 2019
Temperature: 30.0°C (86°F)
Dewpoint: 24.0°C (75°F) [RH = 70%]
Pressure (altimeter): 29.73 inches Hg (1007.0 mb)
Winds: from the SSW (210 degrees) at 5 MPH (4 knots; 2.1 m/s)
Visibility: 6 or more miles (10+ km)
Ceiling: 18000 feet AGL
Clouds: few clouds at 2200 feet AGL
broken clouds at 18000 feet AGL
Weather: no significant weather observed at this time

METAR text: WSSS 231000Z 21004KT 170V240 9999 FEW020 BKN170 BKN300 30/24 Q1007 NOSIG
Conditions at: WSSS (SINGAPORE/CHANGI, SG) observed 1000 UTC 23 June 2019
Temperature: 30.0°C (86°F)
Dewpoint: 24.0°C (75°F) [RH = 70%]
Pressure (altimeter): 29.73 inches Hg (1007.0 mb)
Winds: from the SSW (210 degrees) at 5 MPH (4 knots; 2.1 m/s)
Visibility: 6 or more miles (10+ km)
Ceiling: 17000 feet AGL
Clouds: few clouds at 2000 feet AGL
broken clouds at 17000 feet AGL
broken clouds at 30000 feet AGL
Weather: no significant weather observed at this time

METAR text: WSSS 230930Z 20006KT 170V250 9999 SCT022 BKN300 30/25 Q1007 NOSIG
Conditions at: WSSS (SINGAPORE/CHANGI, SG) observed 0930 UTC 23 June 2019
Temperature: 30.0°C (86°F)
Dewpoint: 25.0°C (77°F) [RH = 75%]
Pressure (altimeter): 29.73 inches Hg (1007.0 mb)
Winds: from the SSW (200 degrees) at 7 MPH (6 knots; 3.1 m/s)
Visibility: 6 or more miles (10+ km)
Ceiling: 30000 feet AGL
Clouds: scattered clouds at 2200 feet AGL
broken clouds at 30000 feet AGL
Weather: no significant weather observed at this time

METAR text: WSSS 230900Z 20006KT 190V250 9999 SCT020 BKN300 31/23 Q1007 NOSIG
Conditions at: WSSS (SINGAPORE/CHANGI, SG) observed 0900 UTC 23 June 2019
Temperature: 31.0°C (88°F)
Dewpoint: 23.0°C (73°F) [RH = 63%]
Pressure (altimeter): 29.73 inches Hg (1007.0 mb)
Winds: from the SSW (200 degrees) at 7 MPH (6 knots; 3.1 m/s)
Visibility: 6 or more miles (10+ km)
Ceiling: 30000 feet AGL
Clouds: scattered clouds at 2000 feet AGL
broken clouds at 30000 feet AGL
Weather: no significant weather observed at this time

METAR text: WSSS 230830Z 22005KT 190V260 9999 FEW020 SCT160 BKN300 31/22 Q1007 NOSIG
Conditions at: WSSS (SINGAPORE/CHANGI, SG) observed 0830 UTC 23 June 2019
Temperature: 31.0°C (88°F)
Dewpoint: 22.0°C (72°F) [RH = 59%]
Pressure (altimeter): 29.73 inches Hg (1007.0 mb)
Winds: from the SW (220 degrees) at 6 MPH (5 knots; 2.6 m/s)
Visibility: 6 or more miles (10+ km)
Ceiling: 30000 feet AGL
Clouds: few clouds at 2000 feet AGL
scattered clouds at 16000 feet AGL
broken clouds at 30000 feet AGL
Weather: no significant weather observed at this time

METAR text: WSSS 230800Z 20006KT 170V260 9999 FEW020 BKN160 31/23 Q1007 NOSIG
Conditions at: WSSS (SINGAPORE/CHANGI, SG) observed 0800 UTC 23 June 2019
Temperature: 31.0°C (88°F)
Dewpoint: 23.0°C (73°F) [RH = 63%]
Pressure (altimeter): 29.73 inches Hg (1007.0 mb)
Winds: from the SSW (200 degrees) at 7 MPH (6 knots; 3.1 m/s)
Visibility: 6 or more miles (10+ km)
Ceiling: 16000 feet AGL
Clouds: few clouds at 2000 feet AGL
broken clouds at 16000 feet AGL
Weather: no significant weather observed at this time

METAR text: WSSS 230730Z 21006KT 180V260 9999 FEW020 BKN160 31/24 Q1007 NOSIG
Conditions at: WSSS (SINGAPORE/CHANGI, SG) observed 0730 UTC 23 June 2019
Temperature: 31.0°C (88°F)
Dewpoint: 24.0°C (75°F) [RH = 66%]
Pressure (altimeter): 29.73 inches Hg (1007.0 mb)
Winds: from the SSW (210 degrees) at 7 MPH (6 knots; 3.1 m/s)
Visibility: 6 or more miles (10+ km)
Ceiling: 16000 feet AGL
Clouds: few clouds at 2000 feet AGL
broken clouds at 16000 feet AGL
Weather: no significant weather observed at this time

METAR text: WSSS 230700Z 21006KT 170V270 9999 FEW020 BKN160 31/20 Q1007 NOSIG
Conditions at: WSSS (SINGAPORE/CHANGI, SG) observed 0700 UTC 23 June 2019
Temperature: 31.0°C (88°F)
Dewpoint: 20.0°C (68°F) [RH = 52%]
Pressure (altimeter): 29.73 inches Hg (1007.0 mb)
Winds: from the SSW (210 degrees) at 7 MPH (6 knots; 3.1 m/s)
Visibility: 6 or more miles (10+ km)
Ceiling: 16000 feet AGL
Clouds: few clouds at 2000 feet AGL
broken clouds at 16000 feet AGL
Weather: no significant weather observed at this time

METAR text: WSSS 230630Z 23005KT 180V270 9999 FEW020 BKN160 31/23 Q1007 NOSIG
Conditions at: WSSS (SINGAPORE/CHANGI, SG) observed 0630 UTC 23 June 2019
Temperature: 31.0°C (88°F)
Dewpoint: 23.0°C (73°F) [RH = 63%]
Pressure (altimeter): 29.73 inches Hg (1007.0 mb)
Winds: from the SW (230 degrees) at 6 MPH (5 knots; 2.6 m/s)
Visibility: 6 or more miles (10+ km)
Ceiling: 16000 feet AGL
Clouds: few clouds at 2000 feet AGL
broken clouds at 16000 feet AGL
Weather: no significant weather observed at this time

METAR text: WSSS 230600Z 23005KT 180V320 9999 FEW018 BKN150 31/22 Q1008 NOSIG
Conditions at: WSSS (SINGAPORE/CHANGI, SG) observed 0600 UTC 23 June 2019
Temperature: 31.0°C (88°F)
Dewpoint: 22.0°C (72°F) [RH = 59%]
Pressure (altimeter): 29.76 inches Hg (1008.0 mb)
Winds: from the SW (230 degrees) at 6 MPH (5 knots; 2.6 m/s)
Visibility: 6 or more miles (10+ km)
Ceiling: 15000 feet AGL
Clouds: few clouds at 1800 feet AGL
broken clouds at 15000 feet AGL
Weather: no significant weather observed at this time

METAR text: WSSS 230530Z 22005G15KT 170V260 9999 FEW018 BKN150 31/24 Q1008 NOSIG
Conditions at: WSSS (SINGAPORE/CHANGI, SG) observed 0530 UTC 23 June 2019
Temperature: 31.0°C (88°F)
Dewpoint: 24.0°C (75°F) [RH = 66%]
Pressure (altimeter): 29.76 inches Hg (1008.0 mb)
Winds: from the SW (220 degrees) at 6 MPH (5 knots; 2.6 m/s)
gusting to 17 MPH (15 knots; 7.7 m/s)
Visibility: 6 or more miles (10+ km)
Ceiling: 15000 feet AGL
Clouds: few clouds at 1800 feet AGL
broken clouds at 15000 feet AGL
Weather: no significant weather observed at this time

Forecast for: WSSS (SINGAPORE/CHANGI, SG)
Text: TAF WSSS 241700Z 2418/2600 17010KT 9999 FEW015 SCT020
Forecast period: 1800 UTC 24 June 2019 to 0000 UTC 26 June 2019
Forecast type: FROM: standard forecast or significant change
Winds: from the S (170 degrees) at 12 MPH (10 knots; 5.1 m/s)
Visibility: 6 or more miles 10+ km)
Ceiling: at least 12,000 feet AGL
Clouds: few clouds at 1500 feet AGL
scattered clouds at 2000 feet AGL
Weather: no significant weather forecast for this period
Text: TEMPO 2500/2504 3000 TSRA FEW012CB BKN015
Forecast period: 0000 to 0400 UTC 25 June 2019
Forecast type: TEMPORARY: The following changes expected for less than half the time period
Visibility: 1.86 miles (2.99 km)
Ceiling: 1500 feet AGL
Clouds: few clouds at 1200 feet AGL
broken clouds at 1500 feet AGL
Weather: TSRA  (rain associated with thunderstorm(s))